Etusivu
METAR-TAF:

METAR-TAF

Lentoasemat :

Warroad International Airport (Swede Carlson Field)

Warroad, Minnesota, Yhdysvallat

Leveyspiiri: 48-56-29N, Pituuspiiri: 095-20-54W, korkeus merenpinnasta: 327 m

Tämänhetkinen sää

Tämä raportti tehtiin 33 minuuttia sitten, kello 09.15 UTC
Tuuli 6 kn luoteesta
Lämpötila -1°C
Kosteus 93%
Ilmanpaine 1017 hPa
Näkyvyys: 16.1 km
selkeää

METAR: KRRT 260915Z AUTO 31006KT 10SM CLR M01/M02 A3002 RMK AO2

Aika: 04:48 (09:48 UTC)


TAF: puuttuu

Säähavainnot ja -ennusteet yli 4000 lentoasemalta (METAR- ja TAF-raportit).

Käytössä olevat sääasemat on merkitty karttaan keltaisilla ja punaisilla pisteillä.

Aseta hiiri pisteen päälle nähdäksesi sääaseman nimen.

Klikkaa sitten nähdäksesi säähavainnot ja -ennusteet.

Kartan vaihtaminen: klikkaa mustalla rastilla varustettuja vihreitä pisteitä, niin voit zoomata sisään; viivalla varustettua vihreää pistettä, niin voit zoomata ulos tai vihreitä nuolia, niin pääset viereisille kartoille.


METAR-TAF: